sensor_id;sensor_type;location;lat;lon;timestamp;P1;durP1;ratioP1;P2;durP2;ratioP2
58306;SDS011;44116;50.884;4.768;2023-01-04T00:00:29;5.0;;;2.1;;
58306;SDS011;44116;50.884;4.768;2023-01-04T00:02:29;8.3;;;2.2;;
58306;SDS011;44116;50.884;4.768;2023-01-04T00:04:28;5.2;;;2.0;;
58306;SDS011;44116;50.884;4.768;2023-01-04T00:06:27;5.6;;;2.1;;
58306;SDS011;44116;50.884;4.768;2023-01-04T00:08:27;5.3;;;1.8;;
58306;SDS011;44116;50.884;4.768;2023-01-04T00:10:27;5.2;;;1.9;;
58306;SDS011;44116;50.884;4.768;2023-01-04T00:12:27;5.6;;;2.0;;
58306;SDS011;44116;50.884;4.768;2023-01-04T00:14:26;6.5;;;2.2;;
58306;SDS011;44116;50.884;4.768;2023-01-04T00:16:27;4.7;;;1.8;;
58306;SDS011;44116;50.884;4.768;2023-01-04T00:18:25;5.9;;;2.1;;
58306;SDS011;44116;50.884;4.768;2023-01-04T00:20:25;5.2;;;2.2;;
58306;SDS011;44116;50.884;4.768;2023-01-04T00:22:25;5.4;;;1.6;;
58306;SDS011;44116;50.884;4.768;2023-01-04T00:26:26;5.8;;;1.8;;
58306;SDS011;44116;50.884;4.768;2023-01-04T00:28:24;4.9;;;1.6;;
58306;SDS011;44116;50.884;4.768;2023-01-04T00:30:23;4.2;;;1.5;;
58306;SDS011;44116;50.884;4.768;2023-01-04T00:34:23;4.1;;;1.7;;
58306;SDS011;44116;50.884;4.768;2023-01-04T00:36:23;3.2;;;1.3;;
58306;SDS011;44116;50.884;4.768;2023-01-04T00:38:22;3.8;;;1.5;;
58306;SDS011;44116;50.884;4.768;2023-01-04T00:40:22;3.6;;;1.3;;
58306;SDS011;44116;50.884;4.768;2023-01-04T00:42:21;3.8;;;1.4;;
58306;SDS011;44116;50.884;4.768;2023-01-04T00:44:21;5.7;;;1.5;;
58306;SDS011;44116;50.884;4.768;2023-01-04T00:46:21;3.9;;;1.6;;
58306;SDS011;44116;50.884;4.768;2023-01-04T00:48:21;3.7;;;1.5;;
58306;SDS011;44116;50.884;4.768;2023-01-04T00:50:20;4.3;;;1.7;;
58306;SDS011;44116;50.884;4.768;2023-01-04T00:52:20;3.4;;;1.3;;
58306;SDS011;44116;50.884;4.768;2023-01-04T00:54:20;4.4;;;1.2;;
58306;SDS011;44116;50.884;4.768;2023-01-04T00:56:19;3.6;;;1.5;;
58306;SDS011;44116;50.884;4.768;2023-01-04T00:58:19;2.7;;;1.2;;
58306;SDS011;44116;50.884;4.768;2023-01-04T01:00:18;4.0;;;1.4;;
58306;SDS011;44116;50.884;4.768;2023-01-04T01:02:18;2.5;;;1.2;;
58306;SDS011;44116;50.884;4.768;2023-01-04T01:06:17;2.8;;;1.4;;
58306;SDS011;44116;50.884;4.768;2023-01-04T01:08:17;2.4;;;1.1;;
58306;SDS011;44116;50.884;4.768;2023-01-04T01:10:17;2.5;;;1.3;;
58306;SDS011;44116;50.884;4.768;2023-01-04T01:18:15;4.2;;;1.5;;
58306;SDS011;44116;50.884;4.768;2023-01-04T01:20:15;2.7;;;1.1;;
58306;SDS011;44116;50.884;4.768;2023-01-04T01:22:15;4.0;;;1.2;;
58306;SDS011;44116;50.884;4.768;2023-01-04T01:24:16;2.8;;;1.3;;
58306;SDS011;44116;50.884;4.768;2023-01-04T01:26:16;2.7;;;1.2;;
58306;SDS011;44116;50.884;4.768;2023-01-04T01:28:14;1.7;;;0.9;;
58306;SDS011;44116;50.884;4.768;2023-01-04T01:30:13;3.0;;;1.1;;
58306;SDS011;44116;50.884;4.768;2023-01-04T01:32:13;2.4;;;1.3;;
58306;SDS011;44116;50.884;4.768;2023-01-04T01:34:12;3.6;;;1.1;;
58306;SDS011;44116;50.884;4.768;2023-01-04T01:36:13;3.7;;;1.3;;
58306;SDS011;44116;50.884;4.768;2023-01-04T01:38:12;3.3;;;1.0;;
58306;SDS011;44116;50.884;4.768;2023-01-04T01:40:12;2.8;;;0.9;;
58306;SDS011;44116;50.884;4.768;2023-01-04T01:42:18;2.2;;;1.0;;
58306;SDS011;44116;50.884;4.768;2023-01-04T01:46:11;2.4;;;0.9;;
58306;SDS011;44116;50.884;4.768;2023-01-04T01:48:14;3.4;;;1.0;;
58306;SDS011;44116;50.884;4.768;2023-01-04T01:50:19;1.9;;;0.9;;
58306;SDS011;44116;50.884;4.768;2023-01-04T01:54:13;2.5;;;0.8;;
58306;SDS011;44116;50.884;4.768;2023-01-04T01:56:09;3.7;;;0.9;;
58306;SDS011;44116;50.884;4.768;2023-01-04T02:00:12;3.0;;;1.0;;
58306;SDS011;44116;50.884;4.768;2023-01-04T02:06:10;1.1;;;0.8;;
58306;SDS011;44116;50.884;4.768;2023-01-04T02:12:09;2.2;;;1.0;;
58306;SDS011;44116;50.884;4.768;2023-01-04T02:14:07;2.3;;;0.9;;
58306;SDS011;44116;50.884;4.768;2023-01-04T02:16:09;1.0;;;0.8;;
58306;SDS011;44116;50.884;4.768;2023-01-04T02:24:19;1.9;;;0.9;;
58306;SDS011;44116;50.884;4.768;2023-01-04T02:26:21;0.8;;;0.7;;
58306;SDS011;44116;50.884;4.768;2023-01-04T02:28:08;1.4;;;0.8;;
58306;SDS011;44116;50.884;4.768;2023-01-04T02:30:18;1.8;;;1.0;;
58306;SDS011;44116;50.884;4.768;2023-01-04T02:32:07;1.4;;;0.8;;
58306;SDS011;44116;50.884;4.768;2023-01-04T02:36:09;2.2;;;0.9;;
58306;SDS011;44116;50.884;4.768;2023-01-04T02:44:07;2.8;;;1.2;;
58306;SDS011;44116;50.884;4.768;2023-01-04T02:46:04;2.4;;;0.9;;
58306;SDS011;44116;50.884;4.768;2023-01-04T02:48:01;2.1;;;1.1;;
58306;SDS011;44116;50.884;4.768;2023-01-04T02:50:00;2.6;;;0.9;;
58306;SDS011;44116;50.884;4.768;2023-01-04T02:52:00;4.6;;;1.4;;
58306;SDS011;44116;50.884;4.768;2023-01-04T02:54:03;1.8;;;1.2;;
58306;SDS011;44116;50.884;4.768;2023-01-04T02:56:09;4.3;;;1.6;;
58306;SDS011;44116;50.884;4.768;2023-01-04T03:00:09;2.8;;;1.3;;
58306;SDS011;44116;50.884;4.768;2023-01-04T03:02:04;5.0;;;1.4;;
58306;SDS011;44116;50.884;4.768;2023-01-04T03:04:10;3.8;;;1.5;;
58306;SDS011;44116;50.884;4.768;2023-01-04T03:06:02;3.6;;;1.4;;
58306;SDS011;44116;50.884;4.768;2023-01-04T03:08:04;4.7;;;1.5;;
58306;SDS011;44116;50.884;4.768;2023-01-04T03:10:01;3.3;;;1.6;;
58306;SDS011;44116;50.884;4.768;2023-01-04T03:12:00;2.3;;;1.4;;
58306;SDS011;44116;50.884;4.768;2023-01-04T03:13:59;4.9;;;1.8;;
58306;SDS011;44116;50.884;4.768;2023-01-04T03:15:59;2.4;;;1.5;;
58306;SDS011;44116;50.884;4.768;2023-01-04T03:17:59;5.1;;;1.6;;
58306;SDS011;44116;50.884;4.768;2023-01-04T03:19:57;4.2;;;1.7;;
58306;SDS011;44116;50.884;4.768;2023-01-04T03:21:55;4.6;;;1.8;;
58306;SDS011;44116;50.884;4.768;2023-01-04T03:23:58;3.0;;;1.6;;
58306;SDS011;44116;50.884;4.768;2023-01-04T03:25:58;5.5;;;2.4;;
58306;SDS011;44116;50.884;4.768;2023-01-04T03:27:54;5.1;;;1.9;;
58306;SDS011;44116;50.884;4.768;2023-01-04T03:29:59;3.9;;;1.8;;
58306;SDS011;44116;50.884;4.768;2023-01-04T03:36:01;5.3;;;1.9;;
58306;SDS011;44116;50.884;4.768;2023-01-04T03:40:02;4.5;;;1.8;;
58306;SDS011;44116;50.884;4.768;2023-01-04T03:41:58;4.4;;;1.9;;
58306;SDS011;44116;50.884;4.768;2023-01-04T03:44:00;3.8;;;2.0;;
58306;SDS011;44116;50.884;4.768;2023-01-04T03:45:55;3.0;;;1.8;;
58306;SDS011;44116;50.884;4.768;2023-01-04T03:47:58;4.4;;;1.9;;
58306;SDS011;44116;50.884;4.768;2023-01-04T03:49:55;4.7;;;1.7;;
58306;SDS011;44116;50.884;4.768;2023-01-04T03:51:53;5.8;;;1.8;;
58306;SDS011;44116;50.884;4.768;2023-01-04T03:55:51;4.6;;;1.7;;
58306;SDS011;44116;50.884;4.768;2023-01-04T03:59:54;5.1;;;2.0;;
58306;SDS011;44116;50.884;4.768;2023-01-04T04:01:49;4.2;;;1.7;;
58306;SDS011;44116;50.884;4.768;2023-01-04T04:05:48;4.3;;;2.0;;
58306;SDS011;44116;50.884;4.768;2023-01-04T04:09:48;5.0;;;1.7;;
58306;SDS011;44116;50.884;4.768;2023-01-04T04:11:48;5.6;;;1.8;;
58306;SDS011;44116;50.884;4.768;2023-01-04T04:13:48;4.1;;;1.7;;
58306;SDS011;44116;50.884;4.768;2023-01-04T04:15:47;3.3;;;1.6;;
58306;SDS011;44116;50.884;4.768;2023-01-04T04:17:46;5.5;;;1.9;;
58306;SDS011;44116;50.884;4.768;2023-01-04T04:19:46;3.5;;;1.6;;
58306;SDS011;44116;50.884;4.768;2023-01-04T04:21:45;7.1;;;2.0;;
58306;SDS011;44116;50.884;4.768;2023-01-04T04:23:45;3.4;;;1.7;;
58306;SDS011;44116;50.884;4.768;2023-01-04T04:27:44;5.0;;;1.8;;
58306;SDS011;44116;50.884;4.768;2023-01-04T04:31:44;5.2;;;1.7;;
58306;SDS011;44116;50.884;4.768;2023-01-04T04:35:43;7.0;;;2.2;;
58306;SDS011;44116;50.884;4.768;2023-01-04T04:37:43;4.8;;;1.8;;
58306;SDS011;44116;50.884;4.768;2023-01-04T04:39:43;4.2;;;1.7;;
58306;SDS011;44116;50.884;4.768;2023-01-04T04:41:42;2.9;;;1.6;;
58306;SDS011;44116;50.884;4.768;2023-01-04T04:45:42;5.3;;;1.9;;
58306;SDS011;44116;50.884;4.768;2023-01-04T04:47:41;3.9;;;1.7;;
58306;SDS011;44116;50.884;4.768;2023-01-04T04:49:41;3.7;;;2.1;;
58306;SDS011;44116;50.884;4.768;2023-01-04T04:51:42;4.3;;;1.7;;
58306;SDS011;44116;50.884;4.768;2023-01-04T04:53:41;5.2;;;1.6;;
58306;SDS011;44116;50.884;4.768;2023-01-04T04:55:40;5.9;;;2.0;;
58306;SDS011;44116;50.884;4.768;2023-01-04T04:57:40;3.3;;;1.4;;
58306;SDS011;44116;50.884;4.768;2023-01-04T04:59:39;4.8;;;1.7;;
58306;SDS011;44116;50.884;4.768;2023-01-04T05:01:40;4.5;;;1.5;;
58306;SDS011;44116;50.884;4.768;2023-01-04T05:03:39;3.4;;;1.8;;
58306;SDS011;44116;50.884;4.768;2023-01-04T05:05:39;4.6;;;1.6;;
58306;SDS011;44116;50.884;4.768;2023-01-04T05:09:38;3.1;;;1.4;;
58306;SDS011;44116;50.884;4.768;2023-01-04T05:11:38;3.0;;;1.5;;
58306;SDS011;44116;50.884;4.768;2023-01-04T05:13:38;3.3;;;1.4;;
58306;SDS011;44116;50.884;4.768;2023-01-04T05:15:39;2.7;;;1.6;;
58306;SDS011;44116;50.884;4.768;2023-01-04T05:17:37;3.0;;;1.4;;
58306;SDS011;44116;50.884;4.768;2023-01-04T05:19:36;5.5;;;1.8;;
58306;SDS011;44116;50.884;4.768;2023-01-04T05:21:36;5.3;;;1.3;;
58306;SDS011;44116;50.884;4.768;2023-01-04T05:23:36;3.8;;;1.5;;
58306;SDS011;44116;50.884;4.768;2023-01-04T05:27:35;2.3;;;1.4;;
58306;SDS011;44116;50.884;4.768;2023-01-04T05:29:35;2.8;;;1.3;;
58306;SDS011;44116;50.884;4.768;2023-01-04T05:31:36;3.0;;;1.4;;
58306;SDS011;44116;50.884;4.768;2023-01-04T05:33:35;2.8;;;1.2;;
58306;SDS011;44116;50.884;4.768;2023-01-04T05:37:34;2.7;;;1.3;;
58306;SDS011;44116;50.884;4.768;2023-01-04T05:39:33;4.2;;;1.5;;
58306;SDS011;44116;50.884;4.768;2023-01-04T05:41:33;3.3;;;1.3;;
58306;SDS011;44116;50.884;4.768;2023-01-04T05:43:33;4.9;;;1.6;;
58306;SDS011;44116;50.884;4.768;2023-01-04T05:45:33;2.1;;;1.3;;
58306;SDS011;44116;50.884;4.768;2023-01-04T05:47:33;2.9;;;1.2;;
58306;SDS011;44116;50.884;4.768;2023-01-04T05:49:32;3.3;;;1.4;;
58306;SDS011;44116;50.884;4.768;2023-01-04T05:51:32;3.9;;;1.3;;
58306;SDS011;44116;50.884;4.768;2023-01-04T05:53:31;4.9;;;1.8;;
58306;SDS011;44116;50.884;4.768;2023-01-04T05:55:31;2.9;;;1.5;;
58306;SDS011;44116;50.884;4.768;2023-01-04T05:57:31;3.5;;;1.4;;
58306;SDS011;44116;50.884;4.768;2023-01-04T05:59:31;2.9;;;1.3;;
58306;SDS011;44116;50.884;4.768;2023-01-04T06:01:30;4.9;;;1.4;;
58306;SDS011;44116;50.884;4.768;2023-01-04T06:03:30;4.4;;;1.6;;
58306;SDS011;44116;50.884;4.768;2023-01-04T06:05:29;2.7;;;1.4;;
58306;SDS011;44116;50.884;4.768;2023-01-04T06:07:29;2.4;;;1.2;;
58306;SDS011;44116;50.884;4.768;2023-01-04T06:09:29;3.7;;;1.3;;
58306;SDS011;44116;50.884;4.768;2023-01-04T06:11:29;5.3;;;1.5;;
58306;SDS011;44116;50.884;4.768;2023-01-04T06:15:28;5.8;;;1.7;;
58306;SDS011;44116;50.884;4.768;2023-01-04T06:17:28;2.2;;;1.4;;
58306;SDS011;44116;50.884;4.768;2023-01-04T06:21:27;3.3;;;1.3;;
58306;SDS011;44116;50.884;4.768;2023-01-04T06:23:27;4.2;;;1.2;;
58306;SDS011;44116;50.884;4.768;2023-01-04T06:25:26;2.8;;;1.3;;
58306;SDS011;44116;50.884;4.768;2023-01-04T06:27:26;2.6;;;1.2;;
58306;SDS011;44116;50.884;4.768;2023-01-04T06:29:26;4.8;;;1.3;;
58306;SDS011;44116;50.884;4.768;2023-01-04T06:31:26;3.6;;;1.2;;
58306;SDS011;44116;50.884;4.768;2023-01-04T06:33:25;1.8;;;1.1;;
58306;SDS011;44116;50.884;4.768;2023-01-04T06:35:25;2.9;;;1.2;;
58306;SDS011;44116;50.884;4.768;2023-01-04T06:39:24;3.8;;;1.3;;
58306;SDS011;44116;50.884;4.768;2023-01-04T06:41:24;3.6;;;1.4;;
58306;SDS011;44116;50.884;4.768;2023-01-04T06:45:23;2.6;;;1.2;;
58306;SDS011;44116;50.884;4.768;2023-01-04T06:47:23;2.0;;;1.1;;
58306;SDS011;44116;50.884;4.768;2023-01-04T06:49:23;3.2;;;1.2;;
58306;SDS011;44116;50.884;4.768;2023-01-04T06:51:23;3.9;;;1.6;;
58306;SDS011;44116;50.884;4.768;2023-01-04T06:53:22;1.5;;;1.0;;
58306;SDS011;44116;50.884;4.768;2023-01-04T06:55:22;4.1;;;1.5;;
58306;SDS011;44116;50.884;4.768;2023-01-04T06:57:22;2.6;;;1.1;;
58306;SDS011;44116;50.884;4.768;2023-01-04T07:01:21;3.4;;;1.2;;
58306;SDS011;44116;50.884;4.768;2023-01-04T07:03:21;6.6;;;1.7;;
58306;SDS011;44116;50.884;4.768;2023-01-04T07:05:20;1.8;;;1.1;;
58306;SDS011;44116;50.884;4.768;2023-01-04T07:07:20;3.8;;;1.2;;
58306;SDS011;44116;50.884;4.768;2023-01-04T07:09:20;2.3;;;1.0;;
58306;SDS011;44116;50.884;4.768;2023-01-04T07:11:19;3.4;;;1.4;;
58306;SDS011;44116;50.884;4.768;2023-01-04T07:13:19;3.2;;;1.0;;
58306;SDS011;44116;50.884;4.768;2023-01-04T07:15:19;2.9;;;1.1;;
58306;SDS011;44116;50.884;4.768;2023-01-04T07:17:18;5.7;;;1.3;;
58306;SDS011;44116;50.884;4.768;2023-01-04T07:21:18;2.9;;;1.4;;
58306;SDS011;44116;50.884;4.768;2023-01-04T07:25:18;4.0;;;1.2;;
58306;SDS011;44116;50.884;4.768;2023-01-04T07:27:17;2.5;;;1.0;;
58306;SDS011;44116;50.884;4.768;2023-01-04T07:29:17;5.3;;;1.2;;
58306;SDS011;44116;50.884;4.768;2023-01-04T07:31:16;3.8;;;1.5;;
58306;SDS011;44116;50.884;4.768;2023-01-04T07:33:16;2.9;;;1.1;;
58306;SDS011;44116;50.884;4.768;2023-01-04T07:37:15;3.9;;;1.2;;
58306;SDS011;44116;50.884;4.768;2023-01-04T07:39:16;3.9;;;1.3;;
58306;SDS011;44116;50.884;4.768;2023-01-04T07:41:15;4.7;;;1.2;;
58306;SDS011;44116;50.884;4.768;2023-01-04T07:49:15;3.5;;;1.3;;
58306;SDS011;44116;50.884;4.768;2023-01-04T07:51:13;3.7;;;1.2;;
58306;SDS011;44116;50.884;4.768;2023-01-04T07:53:13;3.1;;;1.1;;
58306;SDS011;44116;50.884;4.768;2023-01-04T07:57:13;2.5;;;1.0;;
58306;SDS011;44116;50.884;4.768;2023-01-04T07:59:13;3.1;;;1.1;;
58306;SDS011;44116;50.884;4.768;2023-01-04T08:01:14;3.3;;;1.2;;
58306;SDS011;44116;50.884;4.768;2023-01-04T08:03:11;1.9;;;1.1;;
58306;SDS011;44116;50.884;4.768;2023-01-04T08:09:11;4.3;;;1.2;;
58306;SDS011;44116;50.884;4.768;2023-01-04T08:11:13;2.4;;;1.1;;
58306;SDS011;44116;50.884;4.768;2023-01-04T08:13:10;3.1;;;1.2;;
58306;SDS011;44116;50.884;4.768;2023-01-04T08:15:10;3.7;;;1.0;;
58306;SDS011;44116;50.884;4.768;2023-01-04T08:17:09;3.0;;;1.2;;
58306;SDS011;44116;50.884;4.768;2023-01-04T08:21:08;2.8;;;1.1;;
58306;SDS011;44116;50.884;4.768;2023-01-04T08:25:08;3.2;;;1.3;;
58306;SDS011;44116;50.884;4.768;2023-01-04T08:27:08;5.3;;;1.4;;
58306;SDS011;44116;50.884;4.768;2023-01-04T08:29:08;3.7;;;1.3;;
58306;SDS011;44116;50.884;4.768;2023-01-04T08:31:09;2.9;;;1.1;;
58306;SDS011;44116;50.884;4.768;2023-01-04T08:33:12;4.8;;;1.3;;
58306;SDS011;44116;50.884;4.768;2023-01-04T08:35:07;4.0;;;1.5;;
58306;SDS011;44116;50.884;4.768;2023-01-04T08:37:06;2.6;;;1.1;;
58306;SDS011;44116;50.884;4.768;2023-01-04T08:41:05;3.2;;;1.2;;
58306;SDS011;44116;50.884;4.768;2023-01-04T08:43:05;3.2;;;1.7;;
58306;SDS011;44116;50.884;4.768;2023-01-04T08:45:07;2.5;;;1.1;;
58306;SDS011;44116;50.884;4.768;2023-01-04T08:49:04;5.6;;;1.3;;
58306;SDS011;44116;50.884;4.768;2023-01-04T08:53:04;3.3;;;1.4;;
58306;SDS011;44116;50.884;4.768;2023-01-04T08:55:04;2.3;;;1.3;;
58306;SDS011;44116;50.884;4.768;2023-01-04T08:57:03;3.7;;;1.5;;
58306;SDS011;44116;50.884;4.768;2023-01-04T08:59:03;4.2;;;1.2;;
58306;SDS011;44116;50.884;4.768;2023-01-04T09:01:05;3.2;;;1.1;;
58306;SDS011;44116;50.884;4.768;2023-01-04T09:03:03;7.1;;;1.6;;
58306;SDS011;44116;50.884;4.768;2023-01-04T09:07:02;3.6;;;1.2;;
58306;SDS011;44116;50.884;4.768;2023-01-04T09:09:01;4.1;;;1.3;;
58306;SDS011;44116;50.884;4.768;2023-01-04T09:11:02;3.1;;;1.2;;
58306;SDS011;44116;50.884;4.768;2023-01-04T09:13:01;4.3;;;1.3;;
58306;SDS011;44116;50.884;4.768;2023-01-04T09:15:00;4.5;;;1.4;;
58306;SDS011;44116;50.884;4.768;2023-01-04T09:17:00;3.6;;;1.2;;
58306;SDS011;44116;50.884;4.768;2023-01-04T09:19:00;3.5;;;1.3;;
58306;SDS011;44116;50.884;4.768;2023-01-04T09:21:04;4.0;;;1.2;;
58306;SDS011;44116;50.884;4.768;2023-01-04T09:22:59;3.2;;;1.6;;
58306;SDS011;44116;50.884;4.768;2023-01-04T09:24:59;3.6;;;1.5;;
58306;SDS011;44116;50.884;4.768;2023-01-04T09:26:59;3.5;;;1.3;;
58306;SDS011;44116;50.884;4.768;2023-01-04T09:28:58;5.9;;;1.5;;
58306;SDS011;44116;50.884;4.768;2023-01-04T09:31:04;3.9;;;1.3;;
58306;SDS011;44116;50.884;4.768;2023-01-04T09:32:58;3.8;;;1.2;;
58306;SDS011;44116;50.884;4.768;2023-01-04T09:34:58;3.8;;;1.3;;
58306;SDS011;44116;50.884;4.768;2023-01-04T09:36:57;3.2;;;1.2;;
58306;SDS011;44116;50.884;4.768;2023-01-04T09:38:57;3.6;;;1.3;;
58306;SDS011;44116;50.884;4.768;2023-01-04T09:41:01;2.8;;;1.0;;
58306;SDS011;44116;50.884;4.768;2023-01-04T09:45:00;6.8;;;1.5;;
58306;SDS011;44116;50.884;4.768;2023-01-04T09:47:01;4.0;;;1.1;;
58306;SDS011;44116;50.884;4.768;2023-01-04T09:50:58;3.6;;;1.3;;
58306;SDS011;44116;50.884;4.768;2023-01-04T09:53:01;4.9;;;1.1;;
58306;SDS011;44116;50.884;4.768;2023-01-04T09:54:57;5.4;;;1.3;;
58306;SDS011;44116;50.884;4.768;2023-01-04T09:56:56;4.7;;;1.1;;
58306;SDS011;44116;50.884;4.768;2023-01-04T09:58:55;3.7;;;1.3;;
58306;SDS011;44116;50.884;4.768;2023-01-04T10:00:58;5.1;;;1.6;;
58306;SDS011;44116;50.884;4.768;2023-01-04T10:02:57;3.5;;;1.1;;
58306;SDS011;44116;50.884;4.768;2023-01-04T10:04:54;2.8;;;0.9;;
58306;SDS011;44116;50.884;4.768;2023-01-04T10:06:53;5.0;;;1.2;;
58306;SDS011;44116;50.884;4.768;2023-01-04T10:09:02;2.9;;;0.9;;
58306;SDS011;44116;50.884;4.768;2023-01-04T10:11:01;3.3;;;1.1;;
58306;SDS011;44116;50.884;4.768;2023-01-04T10:13:02;6.7;;;1.3;;
58306;SDS011;44116;50.884;4.768;2023-01-04T10:15:04;4.6;;;1.2;;
58306;SDS011;44116;50.884;4.768;2023-01-04T10:17:05;3.9;;;0.9;;
58306;SDS011;44116;50.884;4.768;2023-01-04T10:18:58;3.7;;;1.2;;
58306;SDS011;44116;50.884;4.768;2023-01-04T10:21:00;2.7;;;1.0;;
58306;SDS011;44116;50.884;4.768;2023-01-04T10:24:59;2.3;;;0.9;;
58306;SDS011;44116;50.884;4.768;2023-01-04T10:29:04;2.8;;;1.1;;
58306;SDS011;44116;50.884;4.768;2023-01-04T10:30:55;3.4;;;1.0;;
58306;SDS011;44116;50.884;4.768;2023-01-04T10:32:55;4.0;;;1.1;;
58306;SDS011;44116;50.884;4.768;2023-01-04T10:34:49;3.8;;;1.3;;
58306;SDS011;44116;50.884;4.768;2023-01-04T10:36:53;3.2;;;1.2;;
58306;SDS011;44116;50.884;4.768;2023-01-04T10:40:49;4.1;;;1.0;;
58306;SDS011;44116;50.884;4.768;2023-01-04T10:42:56;4.1;;;1.5;;
58306;SDS011;44116;50.884;4.768;2023-01-04T10:44:54;4.0;;;1.1;;
58306;SDS011;44116;50.884;4.768;2023-01-04T10:47:03;3.2;;;0.9;;
58306;SDS011;44116;50.884;4.768;2023-01-04T10:48:50;3.5;;;1.4;;
58306;SDS011;44116;50.884;4.768;2023-01-04T10:50:53;4.9;;;1.3;;
58306;SDS011;44116;50.884;4.768;2023-01-04T10:52:51;3.6;;;1.2;;
58306;SDS011;44116;50.884;4.768;2023-01-04T11:00:51;4.2;;;1.0;;
58306;SDS011;44116;50.884;4.768;2023-01-04T11:02:48;3.2;;;1.2;;
58306;SDS011;44116;50.884;4.768;2023-01-04T11:04:51;1.9;;;1.0;;
58306;SDS011;44116;50.884;4.768;2023-01-04T11:06:51;4.6;;;1.2;;
58306;SDS011;44116;50.884;4.768;2023-01-04T11:10:49;4.6;;;1.3;;
58306;SDS011;44116;50.884;4.768;2023-01-04T11:12:44;3.5;;;1.1;;
58306;SDS011;44116;50.884;4.768;2023-01-04T11:14:44;4.4;;;1.0;;
58306;SDS011;44116;50.884;4.768;2023-01-04T11:16:46;4.2;;;1.2;;
58306;SDS011;44116;50.884;4.768;2023-01-04T11:20:43;3.7;;;1.1;;
58306;SDS011;44116;50.884;4.768;2023-01-04T11:22:47;3.8;;;1.0;;
58306;SDS011;44116;50.884;4.768;2023-01-04T11:26:44;3.5;;;0.9;;
58306;SDS011;44116;50.884;4.768;2023-01-04T11:28:45;4.1;;;1.1;;
58306;SDS011;44116;50.884;4.768;2023-01-04T11:30:48;2.8;;;1.2;;
58306;SDS011;44116;50.884;4.768;2023-01-04T11:32:48;4.0;;;1.0;;
58306;SDS011;44116;50.884;4.768;2023-01-04T11:36:42;2.9;;;1.1;;
58306;SDS011;44116;50.884;4.768;2023-01-04T11:38:53;3.5;;;0.9;;
58306;SDS011;44116;50.884;4.768;2023-01-04T11:40:40;2.4;;;1.0;;
58306;SDS011;44116;50.884;4.768;2023-01-04T11:44:39;1.7;;;0.9;;
58306;SDS011;44116;50.884;4.768;2023-01-04T11:46:39;2.2;;;1.0;;
58306;SDS011;44116;50.884;4.768;2023-01-04T11:48:40;2.1;;;0.8;;
58306;SDS011;44116;50.884;4.768;2023-01-04T11:50:40;2.2;;;0.9;;
58306;SDS011;44116;50.884;4.768;2023-01-04T11:52:38;2.3;;;0.8;;
58306;SDS011;44116;50.884;4.768;2023-01-04T11:54:38;2.0;;;1.0;;
58306;SDS011;44116;50.884;4.768;2023-01-04T11:58:38;4.4;;;0.9;;
58306;SDS011;44116;50.884;4.768;2023-01-04T12:00:38;2.1;;;1.1;;
58306;SDS011;44116;50.884;4.768;2023-01-04T12:02:37;2.7;;;1.0;;
58306;SDS011;44116;50.884;4.768;2023-01-04T12:04:36;2.9;;;0.8;;
58306;SDS011;44116;50.884;4.768;2023-01-04T12:08:36;3.4;;;1.1;;
58306;SDS011;44116;50.884;4.768;2023-01-04T12:12:35;3.0;;;0.9;;
58306;SDS011;44116;50.884;4.768;2023-01-04T12:16:44;2.2;;;1.0;;
58306;SDS011;44116;50.884;4.768;2023-01-04T12:18:37;2.2;;;0.8;;
58306;SDS011;44116;50.884;4.768;2023-01-04T12:20:35;3.4;;;0.9;;
58306;SDS011;44116;50.884;4.768;2023-01-04T12:22:36;1.1;;;1.0;;
58306;SDS011;44116;50.884;4.768;2023-01-04T12:24:34;2.7;;;1.2;;
58306;SDS011;44116;50.884;4.768;2023-01-04T12:26:39;1.6;;;0.7;;
58306;SDS011;44116;50.884;4.768;2023-01-04T12:28:35;1.9;;;0.8;;
58306;SDS011;44116;50.884;4.768;2023-01-04T12:30:37;2.2;;;0.7;;
58306;SDS011;44116;50.884;4.768;2023-01-04T12:32:39;2.3;;;0.8;;
58306;SDS011;44116;50.884;4.768;2023-01-04T12:34:41;2.0;;;0.9;;
58306;SDS011;44116;50.884;4.768;2023-01-04T12:42:31;4.2;;;1.2;;
58306;SDS011;44116;50.884;4.768;2023-01-04T12:50:30;3.1;;;1.0;;
58306;SDS011;44116;50.884;4.768;2023-01-04T12:52:41;2.4;;;0.9;;
58306;SDS011;44116;50.884;4.768;2023-01-04T12:54:43;2.5;;;0.8;;
58306;SDS011;44116;50.884;4.768;2023-01-04T12:58:40;3.7;;;1.1;;
58306;SDS011;44116;50.884;4.768;2023-01-04T13:02:30;3.9;;;1.0;;
58306;SDS011;44116;50.884;4.768;2023-01-04T13:04:38;6.1;;;1.2;;
58306;SDS011;44116;50.884;4.768;2023-01-04T13:06:31;2.7;;;0.8;;
58306;SDS011;44116;50.884;4.768;2023-01-04T13:08:29;1.8;;;0.7;;
58306;SDS011;44116;50.884;4.768;2023-01-04T13:12:42;2.3;;;1.0;;
58306;SDS011;44116;50.884;4.768;2023-01-04T13:14:35;2.0;;;0.8;;
58306;SDS011;44116;50.884;4.768;2023-01-04T13:16:32;0.9;;;0.6;;
58306;SDS011;44116;50.884;4.768;2023-01-04T13:18:33;2.4;;;0.8;;
58306;SDS011;44116;50.884;4.768;2023-01-04T13:20:27;1.0;;;0.6;;
58306;SDS011;44116;50.884;4.768;2023-01-04T13:22:28;3.1;;;0.7;;
58306;SDS011;44116;50.884;4.768;2023-01-04T13:26:27;3.2;;;0.8;;
58306;SDS011;44116;50.884;4.768;2023-01-04T13:28:25;6.3;;;1.0;;
58306;SDS011;44116;50.884;4.768;2023-01-04T13:30:27;1.4;;;0.9;;
58306;SDS011;44116;50.884;4.768;2023-01-04T13:32:27;1.4;;;0.7;;
58306;SDS011;44116;50.884;4.768;2023-01-04T13:40:25;2.3;;;0.9;;
58306;SDS011;44116;50.884;4.768;2023-01-04T13:42:25;1.3;;;0.7;;
58306;SDS011;44116;50.884;4.768;2023-01-04T13:48:23;3.0;;;0.9;;
58306;SDS011;44116;50.884;4.768;2023-01-04T13:50:27;1.3;;;0.8;;
58306;SDS011;44116;50.884;4.768;2023-01-04T13:52:23;3.0;;;1.0;;
58306;SDS011;44116;50.884;4.768;2023-01-04T13:54:22;1.8;;;0.9;;
58306;SDS011;44116;50.884;4.768;2023-01-04T13:56:23;5.1;;;0.8;;
58306;SDS011;44116;50.884;4.768;2023-01-04T13:58:23;2.8;;;0.9;;
58306;SDS011;44116;50.884;4.768;2023-01-04T14:00:21;3.1;;;0.8;;
58306;SDS011;44116;50.884;4.768;2023-01-04T14:02:21;1.3;;;0.7;;
58306;SDS011;44116;50.884;4.768;2023-01-04T14:06:24;2.8;;;1.0;;
58306;SDS011;44116;50.884;4.768;2023-01-04T14:08:26;2.0;;;0.8;;
58306;SDS011;44116;50.884;4.768;2023-01-04T14:10:20;2.2;;;0.7;;
58306;SDS011;44116;50.884;4.768;2023-01-04T14:12:22;2.8;;;0.8;;
58306;SDS011;44116;50.884;4.768;2023-01-04T14:14:24;2.5;;;1.0;;
58306;SDS011;44116;50.884;4.768;2023-01-04T14:16:19;4.0;;;1.1;;
58306;SDS011;44116;50.884;4.768;2023-01-04T14:18:25;2.2;;;1.0;;
58306;SDS011;44116;50.884;4.768;2023-01-04T14:20:31;3.4;;;0.8;;
58306;SDS011;44116;50.884;4.768;2023-01-04T14:24:31;1.9;;;0.9;;
58306;SDS011;44116;50.884;4.768;2023-01-04T14:26:28;5.3;;;1.4;;
58306;SDS011;44116;50.884;4.768;2023-01-04T14:28:25;2.5;;;0.7;;
58306;SDS011;44116;50.884;4.768;2023-01-04T14:30:25;3.6;;;0.6;;
58306;SDS011;44116;50.884;4.768;2023-01-04T14:32:17;2.5;;;0.7;;
58306;SDS011;44116;50.884;4.768;2023-01-04T14:34:17;1.8;;;0.8;;
58306;SDS011;44116;50.884;4.768;2023-01-04T14:36:19;1.6;;;0.6;;
58306;SDS011;44116;50.884;4.768;2023-01-04T14:38:18;1.9;;;0.8;;
58306;SDS011;44116;50.884;4.768;2023-01-04T14:40:22;1.3;;;0.5;;
58306;SDS011;44116;50.884;4.768;2023-01-04T14:42:23;1.6;;;0.7;;
58306;SDS011;44116;50.884;4.768;2023-01-04T14:44:17;0.9;;;0.6;;
58306;SDS011;44116;50.884;4.768;2023-01-04T14:46:15;1.4;;;0.8;;
58306;SDS011;44116;50.884;4.768;2023-01-04T14:48:15;1.3;;;0.5;;
58306;SDS011;44116;50.884;4.768;2023-01-04T14:50:15;0.8;;;0.7;;
58306;SDS011;44116;50.884;4.768;2023-01-04T14:52:20;2.1;;;0.6;;
58306;SDS011;44116;50.884;4.768;2023-01-04T15:02:13;1.9;;;0.8;;
58306;SDS011;44116;50.884;4.768;2023-01-04T15:04:13;1.9;;;0.5;;
58306;SDS011;44116;50.884;4.768;2023-01-04T15:06:13;2.0;;;0.7;;
58306;SDS011;44116;50.884;4.768;2023-01-04T15:12:12;1.2;;;0.5;;
58306;SDS011;44116;50.884;4.768;2023-01-04T15:14:12;1.3;;;0.6;;
58306;SDS011;44116;50.884;4.768;2023-01-04T15:16:14;1.8;;;0.8;;
58306;SDS011;44116;50.884;4.768;2023-01-04T15:20:11;2.4;;;1.0;;
58306;SDS011;44116;50.884;4.768;2023-01-04T15:22:10;6.1;;;1.4;;
58306;SDS011;44116;50.884;4.768;2023-01-04T15:24:10;4.5;;;1.0;;
58306;SDS011;44116;50.884;4.768;2023-01-04T15:26:10;6.6;;;1.8;;
58306;SDS011;44116;50.884;4.768;2023-01-04T15:28:09;3.0;;;1.0;;
58306;SDS011;44116;50.884;4.768;2023-01-04T15:30:10;5.6;;;1.2;;
58306;SDS011;44116;50.884;4.768;2023-01-04T15:32:09;5.5;;;1.5;;
58306;SDS011;44116;50.884;4.768;2023-01-04T15:38:14;7.2;;;1.8;;